Time;durP1;ratioP1;P1;durP2;ratioP2;P2;SDS_P1;SDS_P2;PMS_P1;PMS_P2;Temp;Humidity;BMP_temperature;BMP_pressure;BME280_temperature;BME280_humidity;BME280_pressure;Samples;Min_cycle;Max_cycle;Signal;HPM_P1;HPM_P2
2021/12/30 00:00:09;;;;;;;57.50;24.02;;;9.80;99.90;;;;;;5230936;28;20025;-78
2021/12/30 00:02:40;;;;;;;48.20;24.58;;;9.80;99.90;;;;;;5230754;28;20029;-78
2021/12/30 00:05:12;;;;;;;58.67;26.40;;;9.90;99.90;;;;;;5230834;28;20025;-78
2021/12/30 00:07:43;;;;;;;51.25;24.48;;;9.80;99.90;;;;;;5230753;28;20053;-78
2021/12/30 00:10:14;;;;;;;59.00;26.58;;;9.70;99.90;;;;;;5230545;28;20117;-78
2021/12/30 00:12:46;;;;;;;54.88;26.10;;;9.60;99.90;;;;;;5230770;28;20100;-78
2021/12/30 00:15:18;;;;;;;54.17;25.40;;;9.80;99.90;;;;;;5230073;28;20326;-78
2021/12/30 00:17:48;;;;;;;53.28;26.15;;;9.80;99.90;;;;;;5230117;28;20037;-78
2021/12/30 00:20:20;;;;;;;53.70;25.75;;;9.70;99.90;;;;;;5230736;28;20082;-79
2021/12/30 00:22:51;;;;;;;58.75;27.27;;;9.60;99.90;;;;;;5230642;28;20024;-79
2021/12/30 00:25:21;;;;;;;66.82;27.75;;;9.70;99.90;;;;;;5230546;28;20053;-78
2021/12/30 00:27:52;;;;;;;39.45;21.42;;;9.70;99.90;;;;;;5230553;28;20021;-79
2021/12/30 00:30:23;;;;;;;44.78;23.55;;;9.70;99.90;;;;;;5230530;28;20454;-79
2021/12/30 00:32:54;;;;;;;45.67;23.58;;;9.70;99.90;;;;;;5230270;28;20452;-79
2021/12/30 00:35:25;;;;;;;44.33;23.60;;;9.70;99.90;;;;;;5230314;28;20060;-78
2021/12/30 00:37:56;;;;;;;45.20;20.77;;;9.70;99.90;;;;;;5230035;28;20098;-77
2021/12/30 00:40:27;;;;;;;38.65;22.00;;;9.70;99.90;;;;;;5230171;28;20112;-79
2021/12/30 00:43:02;;;;;;;41.90;21.75;;;9.80;99.90;;;;;;5230191;28;20108;-76
2021/12/30 00:45:34;;;;;;;56.35;21.92;;;9.80;99.90;;;;;;5230110;28;20174;-78
2021/12/30 00:48:06;;;;;;;44.33;21.02;;;9.60;99.90;;;;;;5230194;28;20107;-79
2021/12/30 00:50:38;;;;;;;32.78;19.10;;;9.70;99.90;;;;;;5229992;28;20610;-78
2021/12/30 00:53:09;;;;;;;43.17;20.33;;;9.80;99.90;;;;;;5229853;28;20074;-76
2021/12/30 00:55:41;;;;;;;41.05;19.40;;;9.70;99.90;;;;;;5230096;28;20033;-78
2021/12/30 00:58:12;;;;;;;35.47;19.35;;;9.80;99.90;;;;;;5229568;28;20048;-78
2021/12/30 01:00:45;;;;;;;39.50;20.02;;;9.70;99.90;;;;;;5229212;28;20029;-78
2021/12/30 01:03:16;;;;;;;37.05;19.75;;;9.80;99.90;;;;;;5229648;28;20025;-79
2021/12/30 01:05:47;;;;;;;41.15;19.20;;;9.80;99.90;;;;;;5229665;28;20115;-79
2021/12/30 01:08:18;;;;;;;43.35;18.77;;;9.80;99.90;;;;;;5229487;28;20475;-79
2021/12/30 01:10:49;;;;;;;37.42;18.75;;;9.70;99.90;;;;;;5229751;28;20033;-79
2021/12/30 01:13:25;;;;;;;43.13;19.65;;;9.80;99.90;;;;;;5229984;28;20032;-79
2021/12/30 01:16:03;;;;;;;41.70;19.95;;;9.70;99.90;;;;;;5229513;28;20025;-79
2021/12/30 01:18:55;;;;;;;38.53;19.23;;;9.70;99.90;;;;;;5229830;28;20025;-79
2021/12/30 01:21:28;;;;;;;38.47;18.20;;;9.90;99.90;;;;;;5229571;28;20056;-79
2021/12/30 01:23:59;;;;;;;38.97;20.70;;;9.80;99.90;;;;;;5229522;28;20032;-79
2021/12/30 01:26:34;;;;;;;35.78;18.88;;;9.90;99.90;;;;;;5229428;28;20024;-76
2021/12/30 01:29:12;;;;;;;43.17;20.67;;;9.90;99.90;;;;;;5229438;28;20137;-77
2021/12/30 01:31:48;;;;;;;33.40;18.85;;;9.90;99.90;;;;;;5229161;28;20095;-77
2021/12/30 01:34:26;;;;;;;35.60;18.52;;;9.90;99.90;;;;;;5229448;28;20017;-76
2021/12/30 01:37:01;;;;;;;45.75;17.85;;;10.00;99.90;;;;;;5227925;28;20040;-79
2021/12/30 01:39:34;;;;;;;39.85;18.38;;;9.90;99.90;;;;;;5229213;28;20108;-79
2021/12/30 01:42:07;;;;;;;45.70;19.83;;;10.00;99.90;;;;;;5229512;28;20055;-79
2021/12/30 01:44:38;;;;;;;42.08;19.33;;;9.90;99.90;;;;;;5227867;28;20079;-79
2021/12/30 01:47:09;;;;;;;44.65;17.90;;;10.00;99.90;;;;;;5229088;28;20379;-79
2021/12/30 01:49:40;;;;;;;39.95;19.90;;;10.00;99.90;;;;;;5228977;28;20017;-79
2021/12/30 01:52:11;;;;;;;46.67;21.38;;;9.90;99.90;;;;;;5229168;28;20043;-79
2021/12/30 01:54:42;;;;;;;34.05;19.75;;;9.90;99.90;;;;;;5229312;28;20044;-79
2021/12/30 01:57:13;;;;;;;37.38;19.52;;;10.00;99.90;;;;;;5228884;28;20513;-79
2021/12/30 01:59:44;;;;;;;40.42;20.85;;;10.00;99.90;;;;;;5228680;28;20029;-79
2021/12/30 02:02:15;;;;;;;47.45;20.42;;;10.00;99.90;;;;;;5228813;28;20104;-79
2021/12/30 02:04:46;;;;;;;49.33;21.92;;;10.00;99.90;;;;;;5229046;28;20107;-79
2021/12/30 02:07:17;;;;;;;36.05;19.52;;;9.90;99.90;;;;;;5228759;28;20053;-79
2021/12/30 02:09:50;;;;;;;33.85;19.70;;;9.90;99.90;;;;;;5228550;28;20507;-79
2021/12/30 02:12:20;;;;;;;42.63;19.95;;;10.00;99.90;;;;;;5228595;28;20033;-79
2021/12/30 02:14:51;;;;;;;49.17;21.38;;;9.90;99.90;;;;;;5228591;28;20013;-79
2021/12/30 02:17:22;;;;;;;53.30;22.73;;;9.80;99.90;;;;;;5228367;28;20468;-79
2021/12/30 02:19:58;;;;;;;48.03;21.83;;;9.90;99.90;;;;;;5228342;28;20051;-79
2021/12/30 02:22:29;;;;;;;39.60;20.08;;;10.00;99.90;;;;;;5228398;28;20033;-78
2021/12/30 02:25:03;;;;;;;40.03;21.17;;;10.00;99.90;;;;;;5228257;28;20061;-78
2021/12/30 02:27:34;;;;;;;41.08;20.88;;;9.80;99.90;;;;;;5228316;28;20036;-78
2021/12/30 02:30:05;;;;;;;38.47;21.95;;;9.90;99.90;;;;;;5228168;28;20025;-79
2021/12/30 02:32:36;;;;;;;45.45;21.90;;;9.80;99.90;;;;;;5228060;28;20021;-79
2021/12/30 02:35:07;;;;;;;40.17;21.67;;;10.00;99.90;;;;;;5226708;28;20032;-78
2021/12/30 02:37:38;;;;;;;48.03;21.33;;;9.80;99.90;;;;;;5227321;28;20041;-79
2021/12/30 02:40:09;;;;;;;35.30;20.45;;;9.80;99.90;;;;;;5227395;28;20032;-79
2021/12/30 02:42:42;;;;;;;38.83;21.63;;;9.90;99.90;;;;;;5228072;28;20029;-78
2021/12/30 02:45:13;;;;;;;40.70;23.60;;;9.90;99.90;;;;;;5228022;28;20074;-79
2021/12/30 02:47:44;;;;;;;41.97;21.60;;;10.00;99.90;;;;;;5227905;28;20021;-79
2021/12/30 02:50:15;;;;;;;38.53;22.13;;;10.00;99.90;;;;;;5227996;28;20056;-78
2021/12/30 02:52:45;;;;;;;44.42;22.25;;;9.90;99.90;;;;;;5227934;28;20017;-78
2021/12/30 02:55:16;;;;;;;44.28;23.35;;;10.00;99.90;;;;;;5227872;28;20021;-79
2021/12/30 02:57:47;;;;;;;40.20;21.83;;;9.90;99.90;;;;;;5227699;28;20404;-78
2021/12/30 03:00:18;;;;;;;48.95;23.27;;;9.90;99.90;;;;;;5227816;28;20017;-78
2021/12/30 03:02:49;;;;;;;47.45;24.70;;;9.90;99.90;;;;;;5227630;28;20029;-78
2021/12/30 03:05:21;;;;;;;51.72;25.83;;;9.90;99.90;;;;;;5227818;28;20188;-78
2021/12/30 03:07:52;;;;;;;41.75;24.52;;;9.90;99.90;;;;;;5227685;28;20094;-78
2021/12/30 03:10:27;;;;;;;38.40;22.30;;;10.00;99.90;;;;;;5227741;28;20029;-78
2021/12/30 03:13:04;;;;;;;36.70;22.33;;;9.90;99.90;;;;;;5227780;28;20482;-79
2021/12/30 03:15:36;;;;;;;43.20;22.33;;;9.90;99.90;;;;;;5227791;28;20798;-79
2021/12/30 03:18:07;;;;;;;35.90;21.60;;;9.90;99.90;;;;;;5226259;28;20381;-79
2021/12/30 03:20:39;;;;;;;36.70;20.13;;;9.90;99.90;;;;;;5227560;28;20025;-79
2021/12/30 03:23:10;;;;;;;40.83;21.35;;;9.90;99.90;;;;;;5227617;28;20112;-79
2021/12/30 03:25:40;;;;;;;36.42;20.65;;;9.90;99.90;;;;;;5227537;28;20104;-78
2021/12/30 03:28:11;;;;;;;38.15;21.85;;;9.90;99.90;;;;;;5227671;28;20021;-79
2021/12/30 03:30:42;;;;;;;37.38;19.08;;;9.90;99.90;;;;;;5227377;28;20116;-78
2021/12/30 03:33:13;;;;;;;31.20;19.30;;;10.00;99.90;;;;;;5227259;28;20018;-78
2021/12/30 03:35:44;;;;;;;30.98;19.35;;;9.90;99.90;;;;;;5227453;28;20044;-78
2021/12/30 03:38:15;;;;;;;33.63;19.10;;;9.90;99.90;;;;;;5227223;28;20068;-78
2021/12/30 03:40:45;;;;;;;27.13;17.35;;;10.00;99.90;;;;;;5226972;28;20102;-79
2021/12/30 03:43:16;;;;;;;33.22;17.95;;;10.10;99.90;;;;;;5226894;28;20365;-79
2021/12/30 03:45:47;;;;;;;25.08;15.75;;;10.10;99.90;;;;;;5227488;28;20033;-79
2021/12/30 03:48:18;;;;;;;25.23;15.57;;;10.10;99.90;;;;;;5227482;28;20032;-78
2021/12/30 03:50:51;;;;;;;35.83;15.50;;;10.20;99.90;;;;;;5229247;28;20033;-76
2021/12/30 03:53:22;;;;;;;31.45;16.30;;;10.20;99.90;;;;;;5231283;28;20025;-78
2021/12/30 03:55:53;;;;;;;23.83;15.00;;;10.20;99.90;;;;;;5230941;28;20033;-79
2021/12/30 03:58:24;;;;;;;31.92;15.35;;;10.20;99.90;;;;;;5231272;28;20082;-78
2021/12/30 04:00:55;;;;;;;28.88;15.15;;;10.10;99.90;;;;;;5231000;28;20029;-78
2021/12/30 04:03:26;;;;;;;27.45;14.95;;;10.20;99.90;;;;;;5231025;28;20510;-79
2021/12/30 04:05:57;;;;;;;23.45;15.18;;;10.20;99.90;;;;;;5230585;28;20057;-79
2021/12/30 04:08:28;;;;;;;30.40;15.90;;;10.20;99.90;;;;;;5230780;28;20037;-78
2021/12/30 04:10:59;;;;;;;26.55;16.48;;;10.10;99.90;;;;;;5230907;28;20035;-79
2021/12/30 04:13:31;;;;;;;33.33;15.43;;;10.20;99.90;;;;;;5230776;28;20055;-79
2021/12/30 04:16:03;;;;;;;26.95;15.10;;;10.20;99.90;;;;;;5230563;28;20031;-79
2021/12/30 04:18:34;;;;;;;26.27;15.48;;;10.20;99.90;;;;;;5230837;28;20033;-79
2021/12/30 04:21:05;;;;;;;33.72;15.63;;;10.20;99.90;;;;;;5230779;28;20025;-78
2021/12/30 04:23:35;;;;;;;26.63;15.20;;;10.20;99.90;;;;;;5230617;28;20051;-79
2021/12/30 04:26:07;;;;;;;30.90;15.82;;;10.20;99.90;;;;;;5230629;28;20107;-79
2021/12/30 04:28:38;;;;;;;32.30;15.88;;;10.10;99.90;;;;;;5230522;28;20100;-79
2021/12/30 04:31:09;;;;;;;25.92;15.45;;;10.20;99.90;;;;;;5230153;28;20033;-79
2021/12/30 04:33:40;;;;;;;26.15;15.00;;;10.20;99.90;;;;;;5230539;28;20039;-78
2021/12/30 04:36:11;;;;;;;28.13;14.73;;;10.20;99.90;;;;;;5229983;28;20033;-78
2021/12/30 04:38:42;;;;;;;28.77;15.48;;;10.30;99.90;;;;;;5230299;28;20033;-79
2021/12/30 04:41:13;;;;;;;32.67;15.57;;;10.30;99.90;;;;;;5230192;28;20025;-78
2021/12/30 04:43:44;;;;;;;26.30;15.57;;;10.30;99.90;;;;;;5230300;28;20404;-79
2021/12/30 04:46:15;;;;;;;26.00;15.55;;;10.30;99.90;;;;;;5230270;28;20021;-79
2021/12/30 04:48:47;;;;;;;25.00;14.95;;;10.20;99.90;;;;;;5230120;28;20025;-79
2021/12/30 04:51:19;;;;;;;30.27;17.45;;;10.30;99.90;;;;;;5230259;28;20088;-79
2021/12/30 04:53:50;;;;;;;31.95;15.20;;;10.30;99.90;;;;;;5230117;28;20029;-79
2021/12/30 04:56:21;;;;;;;40.13;17.55;;;10.30;99.90;;;;;;5229941;28;20083;-79
2021/12/30 04:58:52;;;;;;;39.30;18.58;;;10.30;99.90;;;;;;5230099;28;20056;-79
2021/12/30 05:01:23;;;;;;;38.60;18.27;;;10.20;99.90;;;;;;5228492;28;20025;-78
2021/12/30 05:03:53;;;;;;;36.42;19.20;;;10.30;99.90;;;;;;5229548;28;20033;-79
2021/12/30 05:06:24;;;;;;;46.45;21.73;;;10.30;99.90;;;;;;5229519;28;20119;-80
2021/12/30 05:08:55;;;;;;;40.92;17.92;;;10.30;99.90;;;;;;5229859;28;20033;-79
2021/12/30 05:11:26;;;;;;;34.72;19.55;;;10.30;99.90;;;;;;5229678;28;20116;-79
2021/12/30 05:13:57;;;;;;;42.95;19.75;;;10.30;99.90;;;;;;5229118;28;20411;-77
2021/12/30 05:16:27;;;;;;;39.45;20.63;;;10.20;99.90;;;;;;5218977;28;20108;-78
2021/12/30 05:18:58;;;;;;;47.15;19.77;;;10.30;99.90;;;;;;5228713;28;20492;-77
2021/12/30 05:21:38;;;;;;;46.33;19.65;;;10.30;99.90;;;;;;5225490;28;20534;-76
2021/12/30 05:24:09;;;;;;;42.63;19.40;;;10.30;99.90;;;;;;5229142;28;20033;-76
2021/12/30 05:26:39;;;;;;;44.97;19.63;;;10.30;99.90;;;;;;5228974;28;20263;-76
2021/12/30 05:29:10;;;;;;;43.75;20.80;;;10.40;99.90;;;;;;5212370;28;20029;-78
2021/12/30 05:31:46;;;;;;;48.55;21.52;;;10.40;99.90;;;;;;5208434;28;20461;-76
2021/12/30 05:34:17;;;;;;;46.33;21.13;;;10.50;99.90;;;;;;5208509;28;20084;-78
2021/12/30 05:36:48;;;;;;;47.67;24.55;;;10.40;99.90;;;;;;5214626;28;20033;-79
2021/12/30 05:39:19;;;;;;;77.45;33.45;;;10.40;99.90;;;;;;5229205;28;20037;-80
2021/12/30 05:41:49;;;;;;;52.55;25.58;;;10.30;99.90;;;;;;5229177;28;20119;-80
2021/12/30 05:44:20;;;;;;;53.45;28.17;;;10.40;99.90;;;;;;5226487;28;20412;-79
2021/12/30 05:46:51;;;;;;;44.50;24.67;;;10.40;99.90;;;;;;5208201;28;20029;-80
2021/12/30 05:49:22;;;;;;;37.70;20.45;;;10.40;99.90;;;;;;5208158;28;20033;-79
2021/12/30 05:51:53;;;;;;;42.63;20.25;;;10.50;99.90;;;;;;5208245;28;20434;-79
2021/12/30 05:54:24;;;;;;;38.13;19.85;;;10.50;99.90;;;;;;5208220;28;20064;-79
2021/12/30 05:56:55;;;;;;;42.53;19.75;;;10.40;99.90;;;;;;5207975;28;20044;-79
2021/12/30 05:59:26;;;;;;;36.83;16.83;;;10.40;99.90;;;;;;5208071;28;20026;-78
2021/12/30 06:01:57;;;;;;;37.40;17.73;;;10.50;99.90;;;;;;5208039;28;20057;-78
2021/12/30 06:04:27;;;;;;;38.08;16.70;;;10.40;99.90;;;;;;5207972;28;20025;-79
2021/12/30 06:07:04;;;;;;;39.85;16.80;;;10.50;99.90;;;;;;5207853;28;20087;-78
2021/12/30 06:09:35;;;;;;;27.05;16.27;;;10.50;99.90;;;;;;5207967;28;20109;-80
2021/12/30 06:12:07;;;;;;;41.85;17.58;;;10.40;99.90;;;;;;5207668;28;20088;-78
2021/12/30 06:14:38;;;;;;;34.20;15.43;;;10.40;99.90;;;;;;5217046;28;20401;-76
2021/12/30 06:17:10;;;;;;;30.40;13.50;;;10.50;99.90;;;;;;5227680;28;20041;-79
2021/12/30 06:19:43;;;;;;;31.02;15.48;;;10.50;99.90;;;;;;5228054;28;20021;-79
2021/12/30 06:22:14;;;;;;;39.75;15.80;;;10.40;99.90;;;;;;5226907;28;20044;-79
2021/12/30 06:24:45;;;;;;;31.92;21.30;;;10.50;99.90;;;;;;5228032;28;20350;-80
2021/12/30 06:27:16;;;;;;;54.53;37.53;;;10.30;99.90;;;;;;5227610;28;20032;-79
2021/12/30 06:29:47;;;;;;;48.33;27.70;;;10.30;99.90;;;;;;5227269;28;20537;-79
2021/12/30 06:32:17;;;;;;;38.55;21.55;;;10.40;99.90;;;;;;5227893;28;20024;-78
2021/12/30 06:34:48;;;;;;;38.00;17.95;;;10.40;99.90;;;;;;5227605;28;20476;-79
2021/12/30 06:37:19;;;;;;;44.30;21.08;;;10.30;99.90;;;;;;5227239;28;20078;-78
2021/12/30 06:39:50;;;;;;;36.30;18.70;;;10.30;99.90;;;;;;5227540;28;20381;-79
2021/12/30 06:42:21;;;;;;;40.53;18.30;;;10.30;99.90;;;;;;5227728;28;20096;-78
2021/12/30 06:44:52;;;;;;;38.75;17.88;;;10.30;99.90;;;;;;5226683;28;20056;-78
2021/12/30 06:47:24;;;;;;;41.45;19.38;;;10.40;99.90;;;;;;5227443;28;20053;-78
2021/12/30 06:50:00;;;;;;;36.05;19.27;;;10.30;99.90;;;;;;5226406;28;20013;-76
2021/12/30 06:52:31;;;;;;;50.25;23.60;;;10.40;99.90;;;;;;5227368;28;20404;-78
2021/12/30 06:55:04;;;;;;;39.25;19.85;;;10.30;99.90;;;;;;5226212;28;20027;-78
2021/12/30 06:57:35;;;;;;;33.80;15.98;;;10.30;99.90;;;;;;5227703;28;20090;-79
2021/12/30 07:00:09;;;;;;;55.28;32.65;;;10.20;99.90;;;;;;5227568;28;20440;-78
2021/12/30 07:02:44;;;;;;;58.92;28.25;;;10.30;99.90;;;;;;5225310;28;20507;-79
2021/12/30 07:05:16;;;;;;;43.50;19.35;;;10.30;99.90;;;;;;5226862;28;20523;-78
2021/12/30 07:07:47;;;;;;;48.42;18.85;;;10.30;99.90;;;;;;5227389;28;20401;-78
2021/12/30 07:10:18;;;;;;;34.42;16.77;;;10.20;99.90;;;;;;5227737;28;20021;-79
2021/12/30 07:12:49;;;;;;;31.05;17.20;;;10.20;99.90;;;;;;5227552;28;20025;-78
2021/12/30 07:15:24;;;;;;;34.35;13.68;;;10.20;99.90;;;;;;5217006;28;20021;-77
2021/12/30 07:17:55;;;;;;;39.60;14.45;;;10.10;99.90;;;;;;5206975;28;20120;-78
2021/12/30 07:20:26;;;;;;;30.73;14.32;;;10.10;99.90;;;;;;5206980;28;20098;-79
2021/12/30 07:22:57;;;;;;;30.10;11.38;;;10.10;99.90;;;;;;5207056;28;20108;-79
2021/12/30 07:25:28;;;;;;;33.95;12.98;;;10.00;99.90;;;;;;5226642;28;20021;-77
2021/12/30 07:27:59;;;;;;;32.28;13.70;;;10.00;99.90;;;;;;5231878;28;20056;-80
2021/12/30 07:30:30;;;;;;;28.55;11.07;;;10.10;99.90;;;;;;5231460;28;20051;-79
2021/12/30 07:33:06;;;;;;;23.02;10.38;;;10.00;99.90;;;;;;5231329;28;20495;-79
2021/12/30 07:35:37;;;;;;;28.90;9.45;;;10.10;99.90;;;;;;5231549;28;20115;-78
2021/12/30 07:38:08;;;;;;;25.45;12.70;;;9.90;99.90;;;;;;5231405;28;20044;-81
2021/12/30 07:40:43;;;;;;;32.75;13.73;;;9.90;99.90;;;;;;5231477;28;20079;-80
2021/12/30 07:43:13;;;;;;;27.02;11.63;;;10.00;99.90;;;;;;5231482;28;20583;-77
2021/12/30 07:45:46;;;;;;;26.05;11.85;;;9.90;99.90;;;;;;5231154;28;20033;-79
2021/12/30 07:48:18;;;;;;;24.30;9.95;;;10.00;99.90;;;;;;5231197;28;20013;-78
2021/12/30 07:50:50;;;;;;;20.77;7.70;;;9.90;99.90;;;;;;5231131;28;20116;-78
2021/12/30 07:53:21;;;;;;;21.10;9.55;;;9.80;99.90;;;;;;5231153;28;20022;-78
2021/12/30 07:55:52;;;;;;;19.85;7.47;;;9.80;99.90;;;;;;5231012;28;20377;-78
2021/12/30 07:58:22;;;;;;;20.42;7.95;;;9.90;99.90;;;;;;5230983;28;20033;-78
2021/12/30 08:00:53;;;;;;;23.48;8.48;;;9.80;99.90;;;;;;5224708;28;20342;-79
2021/12/30 08:03:24;;;;;;;20.88;8.13;;;9.70;99.90;;;;;;5210458;28;20092;-79
2021/12/30 08:05:55;;;;;;;16.65;6.93;;;9.60;99.90;;;;;;5210174;28;20389;-79
2021/12/30 08:08:26;;;;;;;23.35;9.30;;;9.40;99.90;;;;;;5210189;28;20045;-80
2021/12/30 08:10:57;;;;;;;24.20;8.75;;;9.50;99.90;;;;;;5210274;28;20060;-78
2021/12/30 08:13:28;;;;;;;16.63;7.53;;;9.50;99.90;;;;;;5210288;28;20427;-78
2021/12/30 08:15:59;;;;;;;22.27;8.98;;;9.40;99.90;;;;;;5225788;28;20530;-80
2021/12/30 08:18:30;;;;;;;37.13;18.50;;;9.30;99.90;;;;;;5230590;28;20055;-79
2021/12/30 08:21:01;;;;;;;21.95;6.68;;;9.20;99.90;;;;;;5230560;28;20040;-77
2021/12/30 08:23:32;;;;;;;27.40;7.65;;;9.10;99.90;;;;;;5230758;28;20481;-79
2021/12/30 08:26:04;;;;;;;16.25;6.18;;;9.20;99.90;;;;;;5227365;28;20033;-78
2021/12/30 08:28:36;;;;;;;23.00;7.18;;;9.20;99.90;;;;;;5224252;28;20025;-77
2021/12/30 08:31:09;;;;;;;20.48;7.43;;;9.10;99.90;;;;;;5227698;28;20025;-78
2021/12/30 08:33:40;;;;;;;29.15;9.52;;;9.20;99.90;;;;;;5229778;28;20468;-78
2021/12/30 08:36:11;;;;;;;23.48;8.70;;;9.10;99.90;;;;;;5229265;28;20071;-79
2021/12/30 08:38:42;;;;;;;27.23;9.40;;;9.20;99.90;;;;;;5229195;28;20045;-78
2021/12/30 08:41:13;;;;;;;24.25;8.38;;;9.00;99.90;;;;;;5229936;28;20024;-78
2021/12/30 08:43:44;;;;;;;23.15;7.97;;;9.00;99.90;;;;;;5229769;28;20384;-78
2021/12/30 08:46:14;;;;;;;37.42;9.02;;;9.10;99.90;;;;;;5229183;28;20032;-77
2021/12/30 08:48:45;;;;;;;31.25;9.30;;;9.10;99.90;;;;;;5216753;28;20102;-78
2021/12/30 08:51:16;;;;;;;29.17;9.32;;;9.00;99.90;;;;;;5225222;28;20107;-79
2021/12/30 08:53:47;;;;;;;31.58;7.57;;;9.00;99.90;;;;;;5223997;28;20021;-76
2021/12/30 08:56:18;;;;;;;27.48;7.80;;;8.90;99.90;;;;;;5211128;28;20030;-78
2021/12/30 08:58:49;;;;;;;26.02;9.35;;;9.00;99.90;;;;;;5215980;28;20029;-77
2021/12/30 09:01:25;;;;;;;29.08;8.63;;;8.90;99.90;;;;;;5234173;28;20051;-77
2021/12/30 09:03:56;;;;;;;21.60;8.85;;;8.80;99.90;;;;;;5226909;28;20053;-79
2021/12/30 09:06:27;;;;;;;26.75;9.23;;;8.90;99.90;;;;;;5219916;28;20064;-78
2021/12/30 09:08:57;;;;;;;28.08;10.00;;;8.90;99.90;;;;;;5228207;28;20057;-78
2021/12/30 09:11:28;;;;;;;30.88;9.82;;;8.80;99.90;;;;;;5228422;28;20021;-79
2021/12/30 09:13:59;;;;;;;28.02;9.65;;;8.90;99.90;;;;;;5228659;28;20044;-80
2021/12/30 09:16:30;;;;;;;29.10;9.90;;;9.00;99.90;;;;;;5218828;28;20048;-79
2021/12/30 09:19:01;;;;;;;36.30;10.23;;;9.10;99.90;;;;;;5228414;28;20037;-80
2021/12/30 09:21:31;;;;;;;29.20;9.55;;;8.90;99.90;;;;;;5228849;28;20163;-78
2021/12/30 09:24:02;;;;;;;34.08;10.05;;;8.80;99.90;;;;;;5224035;28;20033;-78
2021/12/30 09:26:33;;;;;;;34.47;10.20;;;8.80;99.90;;;;;;5225244;28;20053;-77
2021/12/30 09:29:10;;;;;;;33.47;10.18;;;8.80;99.90;;;;;;5222892;28;20025;-78
2021/12/30 09:31:43;;;;;;;28.33;9.57;;;8.90;99.90;;;;;;5221949;28;20026;-77
2021/12/30 09:34:15;;;;;;;36.80;8.30;;;8.90;99.90;;;;;;5225953;28;20056;-78
2021/12/30 09:36:47;;;;;;;27.80;8.70;;;8.90;99.90;;;;;;5225303;28;20036;-77
2021/12/30 09:39:18;;;;;;;30.40;8.43;;;8.80;99.90;;;;;;5226609;28;20059;-76
2021/12/30 09:41:49;;;;;;;36.30;10.80;;;8.70;99.90;;;;;;5227551;28;20148;-76
2021/12/30 09:44:21;;;;;;;26.25;9.48;;;8.80;99.90;;;;;;5227382;28;20098;-77
2021/12/30 09:46:52;;;;;;;33.70;10.43;;;8.70;99.90;;;;;;5227754;28;20028;-76
2021/12/30 09:49:24;;;;;;;28.33;9.55;;;8.90;99.90;;;;;;5226622;28;20025;-76
2021/12/30 09:51:55;;;;;;;32.45;10.48;;;8.90;99.90;;;;;;5226302;28;20017;-78
2021/12/30 09:54:26;;;;;;;27.60;10.50;;;8.90;99.90;;;;;;5227285;28;20021;-76
2021/12/30 09:56:57;;;;;;;26.55;9.30;;;8.90;99.90;;;;;;5222776;28;20052;-78
2021/12/30 09:59:30;;;;;;;28.67;9.15;;;8.80;99.90;;;;;;5224189;28;20045;-78
2021/12/30 10:02:01;;;;;;;35.05;11.45;;;8.70;99.90;;;;;;5214750;28;20025;-79
2021/12/30 10:04:34;;;;;;;30.88;10.70;;;8.70;99.90;;;;;;5238522;28;20162;-79
2021/12/30 10:07:19;;;;;;;38.10;10.43;;;8.70;99.90;;;;;;5232774;28;20049;-78
2021/12/30 10:09:51;;;;;;;36.83;11.23;;;8.60;99.90;;;;;;5212597;28;20017;-78
2021/12/30 10:12:40;;;;;;;31.65;11.23;;;8.70;99.90;;;;;;5227734;28;20037;-78
2021/12/30 10:15:12;;;;;;;28.95;11.48;;;8.70;99.90;;;;;;5227925;28;20031;-76
2021/12/30 10:17:43;;;;;;;29.40;9.40;;;8.90;99.90;;;;;;5216156;28;20068;-78
2021/12/30 10:20:19;;;;;;;34.53;10.60;;;8.70;99.90;;;;;;5224931;28;20061;-76
2021/12/30 10:22:49;;;;;;;42.95;13.02;;;8.70;99.90;;;;;;5226242;28;20027;-78
2021/12/30 10:25:29;;;;;;;36.28;11.63;;;8.70;99.90;;;;;;5225818;28;20029;-77
2021/12/30 10:28:40;;;;;;;24.17;9.52;;;8.60;99.90;;;;;;5221566;28;20025;-78
2021/12/30 10:31:10;;;;;;;30.25;10.00;;;8.60;99.90;;;;;;5180262;28;20057;-77
2021/12/30 10:34:04;;;;;;;28.95;9.60;;;8.70;99.90;;;;;;5181588;28;20050;-77
2021/12/30 10:36:38;;;;;;;30.25;11.48;;;8.60;99.90;;;;;;5181081;28;20084;-78
2021/12/30 10:39:16;;;;;;;39.33;14.20;;;8.60;99.90;;;;;;5168598;28;20042;-78
2021/12/30 10:42:16;;;;;;;32.80;12.07;;;8.60;99.90;;;;;;5164072;28;20545;-76
2021/12/30 10:44:51;;;;;;;31.65;14.07;;;8.60;99.90;;;;;;5176813;28;20061;-76
2021/12/30 10:47:28;;;;;;;38.88;11.50;;;8.70;99.90;;;;;;5167445;28;20030;-78
2021/12/30 10:50:09;;;;;;;30.02;12.38;;;8.50;99.90;;;;;;5183295;28;20038;-76
2021/12/30 10:52:52;;;;;;;29.05;12.00;;;8.60;99.90;;;;;;5184233;28;20022;-78
2021/12/30 10:55:24;;;;;;;31.48;12.10;;;8.50;99.90;;;;;;5184121;28;20481;-78
2021/12/30 10:57:56;;;;;;;30.33;11.52;;;8.60;99.90;;;;;;5183732;28;20087;-78
2021/12/30 11:00:32;;;;;;;28.95;11.55;;;8.70;99.90;;;;;;5183527;28;20040;-78
2021/12/30 11:03:24;;;;;;;25.83;9.95;;;8.60;99.90;;;;;;5226448;28;20345;-80
2021/12/30 11:06:14;;;;;;;40.03;12.45;;;8.60;99.90;;;;;;5212430;28;20025;-78
2021/12/30 11:08:50;;;;;;;28.85;10.75;;;8.60;99.90;;;;;;5227077;28;20115;-79
2021/12/30 11:11:27;;;;;;;34.03;12.00;;;8.60;99.90;;;;;;5227269;28;20080;-78
2021/12/30 11:14:07;;;;;;;40.58;12.20;;;8.60;99.90;;;;;;5227282;28;20053;-78
2021/12/30 11:16:58;;;;;;;28.83;13.27;;;8.70;99.90;;;;;;5227152;28;20025;-78
2021/12/30 11:19:31;;;;;;;36.15;13.15;;;8.70;99.90;;;;;;5226918;28;20445;-78
2021/12/30 11:22:05;;;;;;;29.73;13.38;;;8.70;99.90;;;;;;5226938;28;20079;-79
2021/12/30 11:24:36;;;;;;;31.05;13.52;;;8.70;99.90;;;;;;5221071;28;20032;-78
2021/12/30 11:27:10;;;;;;;35.13;12.20;;;8.70;99.90;;;;;;5222320;28;20469;-78
2021/12/30 11:29:45;;;;;;;31.73;12.40;;;8.70;99.90;;;;;;5226356;28;20021;-78
2021/12/30 11:32:23;;;;;;;40.80;13.63;;;8.70;99.90;;;;;;5227114;28;20074;-78
2021/12/30 11:34:55;;;;;;;43.38;13.20;;;8.70;99.90;;;;;;5226844;28;20051;-80
2021/12/30 11:37:26;;;;;;;37.05;13.88;;;8.60;99.90;;;;;;5226809;28;20065;-76
2021/12/30 11:40:01;;;;;;;31.27;13.98;;;8.60;99.90;;;;;;5225308;28;20052;-78
2021/12/30 11:42:43;;;;;;;39.13;14.25;;;8.60;99.90;;;;;;5225670;28;20017;-78
2021/12/30 11:45:30;;;;;;;42.83;14.65;;;8.70;99.90;;;;;;5225985;28;20025;-78
2021/12/30 11:48:04;;;;;;;33.33;12.77;;;8.60;99.90;;;;;;5242192;28;20028;-78
2021/12/30 11:50:39;;;;;;;39.35;16.05;;;8.70;99.90;;;;;;5226873;28;20128;-78
2021/12/30 11:53:12;;;;;;;44.92;15.82;;;8.60;99.90;;;;;;5227140;28;20028;-78
2021/12/30 11:55:52;;;;;;;40.05;13.82;;;8.70;99.90;;;;;;5226774;28;20020;-78
2021/12/30 11:58:37;;;;;;;34.97;13.75;;;8.70;99.90;;;;;;5226110;28;20096;-78
2021/12/30 12:01:10;;;;;;;39.92;19.85;;;8.70;99.90;;;;;;5226880;28;20032;-79
2021/12/30 12:03:55;;;;;;;35.83;13.60;;;8.70;99.90;;;;;;5226731;28;20029;-77
2021/12/30 12:09:02;;;;;;;39.58;14.15;;;8.60;99.90;;;;;;5226689;28;20170;-78
2021/12/30 12:11:44;;;;;;;33.13;13.02;;;8.60;99.90;;;;;;5226491;28;20056;-79
2021/12/30 12:14:23;;;;;;;34.95;15.02;;;8.50;99.90;;;;;;5230531;28;20021;-78
2021/12/30 12:17:01;;;;;;;32.38;13.88;;;8.50;99.90;;;;;;5230118;28;20033;-78
2021/12/30 12:19:40;;;;;;;37.28;14.27;;;8.50;99.90;;;;;;5230412;28;20079;-78
2021/12/30 12:22:28;;;;;;;30.77;13.55;;;8.60;99.90;;;;;;5230103;28;20480;-76
2021/12/30 12:25:09;;;;;;;39.22;13.93;;;8.60;99.90;;;;;;5229953;28;20025;-78
2021/12/30 12:27:46;;;;;;;;;;;8.40;99.90;;;;;;5218184;28;20476;-78
2021/12/30 12:30:37;;;;;;;38.88;12.63;;;8.60;99.90;;;;;;5229827;28;19911;-78
2021/12/30 12:33:29;;;;;;;40.08;14.20;;;8.70;99.90;;;;;;5229991;28;20029;-78
2021/12/30 12:36:09;;;;;;;36.78;13.50;;;8.50;99.90;;;;;;5229883;28;20029;-76
2021/12/30 12:38:49;;;;;;;50.28;17.45;;;8.50;99.90;;;;;;5229889;28;20037;-77
2021/12/30 12:41:29;;;;;;;34.85;14.13;;;8.50;99.90;;;;;;5229876;28;20483;-77
2021/12/30 12:44:18;;;;;;;32.33;15.20;;;8.50;99.90;;;;;;5229657;28;20036;-76
2021/12/30 12:46:51;;;;;;;29.40;13.73;;;8.50;99.90;;;;;;5229824;28;20033;-77
2021/12/30 12:49:49;;;;;;;32.22;14.90;;;8.50;99.90;;;;;;5229847;28;20056;-77
2021/12/30 12:52:41;;;;;;;26.50;13.25;;;8.60;99.90;;;;;;5227498;28;20036;-77
2021/12/30 12:55:16;;;;;;;30.08;12.52;;;8.60;99.90;;;;;;5229621;28;20025;-77
2021/12/30 12:57:47;;;;;;;33.67;13.52;;;8.50;99.90;;;;;;5229619;28;20122;-77
2021/12/30 13:00:18;;;;;;;36.75;11.63;;;8.50;99.90;;;;;;5229501;28;20563;-77
2021/12/30 13:02:49;;;;;;;29.83;12.38;;;8.50;99.90;;;;;;5229573;28;20028;-76
2021/12/30 13:05:20;;;;;;;37.42;11.27;;;8.50;99.90;;;;;;5229615;28;20033;-76
2021/12/30 13:07:51;;;;;;;31.83;12.40;;;8.50;99.90;;;;;;5228951;28;20059;-74